Time;durP1;ratioP1;P1;durP2;ratioP2;P2;SDS_P1;SDS_P2;PMS_P1;PMS_P2;Temp;Humidity;BMP_temperature;BMP_pressure;BME280_temperature;BME280_humidity;BME280_pressure;Samples;Min_cycle;Max_cycle;Signal;HPM_P1;HPM_P2
2020/12/15 00:00:40;;;;;;;22.85;21.15;;;6.50;86.10;;;;;;5015826;28;20549;-77
2020/12/15 00:03:06;;;;;;;23.13;21.42;;;6.50;86.30;;;;;;5016214;28;20306;-77
2020/12/15 00:05:34;;;;;;;23.60;22.00;;;6.60;85.70;;;;;;5015794;28;20205;-77
2020/12/15 00:08:00;;;;;;;23.23;21.58;;;6.60;85.00;;;;;;5015969;28;20328;-77
2020/12/15 00:10:26;;;;;;;23.15;21.65;;;6.60;84.70;;;;;;5015694;28;20558;-77
2020/12/15 00:12:53;;;;;;;23.42;21.83;;;6.60;84.50;;;;;;5015955;28;20205;-77
2020/12/15 00:15:19;;;;;;;23.20;21.58;;;6.60;84.20;;;;;;5015585;28;20230;-77
2020/12/15 00:17:45;;;;;;;22.15;20.60;;;6.60;84.30;;;;;;5015623;28;20240;-77
2020/12/15 00:20:12;;;;;;;22.60;21.20;;;6.60;84.70;;;;;;5015471;28;20725;-77
2020/12/15 00:22:39;;;;;;;23.08;21.50;;;6.50;84.30;;;;;;5015603;28;20198;-77
2020/12/15 00:25:06;;;;;;;22.95;21.45;;;6.50;84.20;;;;;;5015037;28;20231;-77
2020/12/15 00:27:32;;;;;;;24.60;22.95;;;6.60;83.90;;;;;;5015322;28;20249;-77
2020/12/15 00:29:59;;;;;;;24.38;22.58;;;6.50;83.80;;;;;;5015671;28;20214;-77
2020/12/15 00:32:25;;;;;;;23.33;21.75;;;6.60;83.60;;;;;;5015434;28;20206;-78
2020/12/15 00:34:51;;;;;;;23.30;21.90;;;6.60;83.40;;;;;;5015540;28;20660;-77
2020/12/15 00:37:18;;;;;;;22.77;21.27;;;6.60;83.30;;;;;;5016210;28;20248;-77
2020/12/15 00:39:45;;;;;;;22.40;21.10;;;6.70;83.30;;;;;;5018071;28;20269;-77
2020/12/15 00:42:11;;;;;;;22.63;21.17;;;6.70;83.30;;;;;;5015727;28;20202;-77
2020/12/15 00:44:37;;;;;;;23.45;22.05;;;6.70;82.90;;;;;;5015665;28;20668;-77
2020/12/15 00:47:04;;;;;;;22.88;21.67;;;6.70;82.60;;;;;;5014580;28;20221;-77
2020/12/15 00:49:30;;;;;;;22.88;21.27;;;6.70;82.80;;;;;;5015414;28;20194;-77
2020/12/15 00:51:56;;;;;;;22.38;20.88;;;6.70;82.90;;;;;;5015083;28;20765;-77
2020/12/15 00:54:23;;;;;;;21.60;20.35;;;6.80;82.90;;;;;;5015047;28;20205;-77
2020/12/15 00:56:50;;;;;;;22.15;20.83;;;6.80;82.90;;;;;;5014606;28;20260;-77
2020/12/15 00:59:16;;;;;;;22.95;21.35;;;6.80;82.90;;;;;;5014916;28;20202;-77
2020/12/15 01:01:43;;;;;;;22.35;20.85;;;6.90;82.10;;;;;;5014973;28;20201;-77
2020/12/15 01:04:09;;;;;;;22.52;21.15;;;6.90;81.60;;;;;;5015025;28;20555;-77
2020/12/15 01:06:35;;;;;;;22.40;21.15;;;7.00;81.20;;;;;;5014225;28;20222;-77
2020/12/15 01:09:03;;;;;;;22.50;21.10;;;6.90;81.20;;;;;;5014808;28;20204;-77
2020/12/15 01:11:30;;;;;;;22.67;21.40;;;6.90;81.00;;;;;;5014854;28;20559;-77
2020/12/15 01:13:57;;;;;;;22.98;21.60;;;6.90;80.80;;;;;;5014845;28;20202;-77
2020/12/15 01:16:24;;;;;;;23.67;22.27;;;6.90;80.80;;;;;;5014392;28;20226;-77
2020/12/15 01:18:50;;;;;;;23.00;21.60;;;6.90;80.60;;;;;;5013966;28;20221;-77
2020/12/15 01:21:24;;;;;;;23.98;22.58;;;7.00;80.30;;;;;;5014124;28;20288;-77
2020/12/15 01:23:51;;;;;;;23.90;22.50;;;7.00;80.20;;;;;;5014179;28;20200;-77
2020/12/15 01:26:17;;;;;;;23.50;22.10;;;7.00;80.30;;;;;;5014376;28;20216;-77
2020/12/15 01:28:43;;;;;;;23.80;22.40;;;7.00;80.20;;;;;;5014458;28;20730;-77
2020/12/15 01:31:10;;;;;;;23.27;21.88;;;7.10;79.80;;;;;;5014216;28;20555;-77
2020/12/15 01:33:37;;;;;;;23.13;21.67;;;7.20;78.90;;;;;;5014226;28;20200;-77
2020/12/15 01:36:03;;;;;;;23.40;21.90;;;7.20;79.00;;;;;;5013939;28;20227;-77
2020/12/15 01:38:30;;;;;;;23.70;22.38;;;7.20;78.70;;;;;;5013569;28;20680;-77
2020/12/15 01:40:56;;;;;;;23.55;22.25;;;7.30;78.50;;;;;;5013982;28;20189;-77
2020/12/15 01:43:22;;;;;;;23.40;22.10;;;7.20;78.70;;;;;;5014347;28;20634;-77
2020/12/15 01:45:49;;;;;;;23.83;22.45;;;7.20;79.00;;;;;;5014123;28;20312;-77
2020/12/15 01:48:16;;;;;;;23.90;22.50;;;7.20;79.20;;;;;;5014002;28;20206;-77
2020/12/15 01:50:43;;;;;;;23.77;22.38;;;7.20;79.60;;;;;;5014090;28;20198;-77
2020/12/15 01:53:11;;;;;;;24.08;22.55;;;7.30;79.10;;;;;;5013945;28;20226;-77
2020/12/15 01:55:39;;;;;;;23.92;22.42;;;7.30;79.00;;;;;;5013726;28;20222;-77
2020/12/15 01:58:06;;;;;;;23.92;22.52;;;7.20;79.50;;;;;;5013510;28;20695;-77
2020/12/15 02:00:33;;;;;;;24.30;22.90;;;7.10;79.40;;;;;;5013988;28;20198;-77
2020/12/15 02:02:59;;;;;;;24.55;22.95;;;7.10;79.60;;;;;;5013625;28;20667;-77
2020/12/15 02:05:26;;;;;;;23.85;22.45;;;7.10;79.50;;;;;;5013990;28;20212;-77
2020/12/15 02:07:53;;;;;;;24.25;22.80;;;7.20;78.70;;;;;;5013512;28;20213;-77
2020/12/15 02:10:19;;;;;;;21.80;20.65;;;7.30;78.90;;;;;;5013756;28;20676;-77
2020/12/15 02:12:48;;;;;;;22.48;21.17;;;7.30;81.60;;;;;;5013588;28;20194;-77
2020/12/15 02:15:15;;;;;;;23.75;22.25;;;7.30;82.30;;;;;;5013486;28;20222;-77
2020/12/15 02:17:41;;;;;;;23.13;21.90;;;7.40;80.60;;;;;;5013134;28;20218;-77
2020/12/15 02:20:09;;;;;;;24.33;22.83;;;7.40;79.80;;;;;;5013526;28;20201;-77
2020/12/15 02:22:36;;;;;;;24.10;22.70;;;7.40;79.10;;;;;;5013371;28;20667;-77
2020/12/15 02:25:04;;;;;;;22.83;21.52;;;7.50;78.10;;;;;;5013395;28;20201;-77
2020/12/15 02:27:31;;;;;;;24.00;22.52;;;7.50;77.90;;;;;;5012963;28;20222;-77
2020/12/15 02:29:57;;;;;;;24.25;22.85;;;7.40;79.50;;;;;;5013313;28;20277;-77
2020/12/15 02:32:23;;;;;;;22.15;20.92;;;7.40;80.70;;;;;;5012968;28;20198;-77
2020/12/15 02:34:54;;;;;;;21.98;20.58;;;7.40;88.00;;;;;;5013012;28;20251;-77
2020/12/15 02:37:21;;;;;;;22.67;21.42;;;7.40;84.10;;;;;;5012884;28;20754;-77
2020/12/15 02:39:48;;;;;;;23.30;21.90;;;7.40;82.40;;;;;;5013228;28;20206;-77
2020/12/15 02:42:14;;;;;;;23.20;21.80;;;7.50;81.60;;;;;;5013282;28;20643;-77
2020/12/15 02:44:41;;;;;;;23.63;22.33;;;7.50;80.40;;;;;;5012659;28;20202;-77
2020/12/15 02:47:07;;;;;;;24.58;23.08;;;7.50;79.60;;;;;;5012786;28;20261;-77
2020/12/15 02:49:34;;;;;;;23.98;22.20;;;7.60;79.80;;;;;;5013230;28;20204;-77
2020/12/15 02:52:00;;;;;;;24.95;23.38;;;7.50;80.40;;;;;;5013035;28;20198;-77
2020/12/15 02:54:26;;;;;;;25.30;23.80;;;7.50;79.80;;;;;;5012443;28;20297;-77
2020/12/15 02:56:55;;;;;;;23.80;22.30;;;7.50;79.30;;;;;;5012597;28;20217;-77
2020/12/15 02:59:22;;;;;;;23.83;22.40;;;7.60;79.10;;;;;;5012993;28;20206;-77
2020/12/15 03:01:51;;;;;;;23.95;22.25;;;7.60;78.90;;;;;;5013045;28;20204;-77
2020/12/15 03:04:18;;;;;;;23.83;22.52;;;7.50;79.40;;;;;;5012646;28;20194;-77
2020/12/15 03:06:45;;;;;;;23.85;22.42;;;7.50;79.60;;;;;;4993038;28;20302;-77
2020/12/15 03:09:11;;;;;;;23.30;21.90;;;7.50;81.70;;;;;;4993219;28;20207;-77
2020/12/15 03:11:38;;;;;;;27.10;25.30;;;7.60;84.20;;;;;;4993325;28;20289;-77
2020/12/15 03:14:05;;;;;;;27.10;25.38;;;7.80;80.30;;;;;;5010962;28;20190;-77
2020/12/15 03:16:31;;;;;;;28.73;26.70;;;7.70;80.20;;;;;;5012817;28;20565;-77
2020/12/15 03:18:58;;;;;;;26.55;24.63;;;7.70;80.20;;;;;;5012841;28;20276;-77
2020/12/15 03:21:24;;;;;;;25.02;23.50;;;7.80;79.50;;;;;;5012726;28;20202;-77
2020/12/15 03:23:51;;;;;;;25.48;23.80;;;7.70;77.40;;;;;;5012576;28;20194;-77
2020/12/15 03:26:17;;;;;;;24.38;22.98;;;7.70;77.50;;;;;;5012260;28;20691;-77
2020/12/15 03:28:44;;;;;;;24.58;23.08;;;7.80;78.00;;;;;;5012665;28;20288;-77
2020/12/15 03:31:11;;;;;;;24.67;23.23;;;7.80;77.50;;;;;;5013251;28;20280;-77
2020/12/15 03:33:38;;;;;;;24.98;23.50;;;7.70;75.10;;;;;;5014927;28;20208;-77
2020/12/15 03:36:05;;;;;;;25.52;24.02;;;7.70;75.60;;;;;;5013613;28;20225;-77
2020/12/15 03:38:31;;;;;;;24.45;23.05;;;7.90;75.40;;;;;;5015083;28;20207;-77
2020/12/15 03:40:57;;;;;;;26.38;24.80;;;8.00;75.30;;;;;;5015432;28;20198;-77
2020/12/15 03:43:24;;;;;;;26.08;24.48;;;7.90;75.60;;;;;;5016019;28;20208;-77
2020/12/15 03:45:50;;;;;;;27.02;25.38;;;7.90;76.20;;;;;;5015512;28;20190;-77
2020/12/15 03:48:17;;;;;;;27.27;25.48;;;7.90;77.30;;;;;;5016052;28;20206;-77
2020/12/15 03:50:43;;;;;;;27.05;25.35;;;8.00;77.50;;;;;;5016502;28;20678;-77
2020/12/15 03:53:10;;;;;;;25.88;23.83;;;8.00;77.50;;;;;;5016592;28;20202;-77
2020/12/15 03:55:36;;;;;;;26.13;24.50;;;8.00;77.40;;;;;;5014002;28;20210;-77
2020/12/15 03:58:03;;;;;;;23.52;22.13;;;8.10;77.20;;;;;;5013887;28;20220;-77
2020/12/15 04:00:29;;;;;;;25.30;23.67;;;8.10;76.90;;;;;;5016163;28;20675;-77
2020/12/15 04:02:56;;;;;;;25.02;23.13;;;8.10;76.90;;;;;;5018559;28;20191;-77
2020/12/15 04:05:23;;;;;;;24.75;23.13;;;8.10;77.00;;;;;;5015860;28;20197;-77
2020/12/15 04:07:49;;;;;;;25.25;23.73;;;8.10;77.70;;;;;;5016035;28;20210;-77
2020/12/15 04:10:17;;;;;;;26.02;24.23;;;8.10;77.60;;;;;;5016175;28;20204;-77
2020/12/15 04:12:44;;;;;;;27.05;25.35;;;8.10;76.40;;;;;;5016050;28;20612;-77
2020/12/15 04:15:11;;;;;;;26.60;24.80;;;8.10;75.20;;;;;;5015500;28;20229;-77
2020/12/15 04:17:38;;;;;;;24.90;23.40;;;8.10;75.20;;;;;;5015763;28;20229;-77
2020/12/15 04:20:05;;;;;;;25.25;23.45;;;8.00;75.60;;;;;;5015935;28;20202;-77
2020/12/15 04:22:33;;;;;;;25.60;23.80;;;8.00;75.40;;;;;;5016035;28;20559;-77
2020/12/15 04:25:00;;;;;;;25.63;24.02;;;8.00;75.70;;;;;;5015457;28;20197;-77
2020/12/15 04:27:27;;;;;;;26.02;24.40;;;7.90;76.60;;;;;;5015235;28;20646;-77
2020/12/15 04:29:53;;;;;;;24.80;23.30;;;7.90;76.00;;;;;;5015704;28;20194;-77
2020/12/15 04:32:20;;;;;;;26.60;25.00;;;8.00;75.90;;;;;;5015393;28;20213;-77
2020/12/15 04:34:46;;;;;;;26.77;24.98;;;7.90;75.90;;;;;;5015220;28;20194;-77
2020/12/15 04:37:12;;;;;;;27.38;25.35;;;7.80;76.00;;;;;;5015143;28;20224;-77
2020/12/15 04:39:40;;;;;;;26.20;24.50;;;7.80;76.40;;;;;;5015469;28;20659;-77
2020/12/15 04:42:06;;;;;;;25.35;23.85;;;7.80;76.20;;;;;;5015512;28;20205;-77
2020/12/15 04:44:34;;;;;;;26.27;24.58;;;7.80;75.90;;;;;;5015199;28;20602;-77
2020/12/15 04:47:11;;;;;;;26.48;24.88;;;7.90;75.90;;;;;;5015109;28;20210;-77
2020/12/15 04:49:47;;;;;;;25.48;23.90;;;7.90;76.20;;;;;;5015096;28;20198;-77
2020/12/15 04:52:20;;;;;;;25.90;24.00;;;8.00;75.70;;;;;;5015270;28;20659;-77
2020/12/15 04:54:49;;;;;;;24.27;22.70;;;8.00;76.00;;;;;;5015078;28;20207;-77
2020/12/15 04:57:19;;;;;;;24.90;23.40;;;8.00;76.50;;;;;;5014728;28;20760;-77
2020/12/15 04:59:48;;;;;;;26.45;24.67;;;7.80;76.90;;;;;;5015081;28;20201;-77
2020/12/15 05:02:14;;;;;;;26.30;24.50;;;7.80;77.90;;;;;;5015235;28;20201;-77
2020/12/15 05:04:42;;;;;;;23.80;22.48;;;7.80;77.30;;;;;;5014708;28;20198;-77
2020/12/15 05:07:10;;;;;;;25.20;23.60;;;7.90;77.20;;;;;;5014623;28;20222;-77
2020/12/15 05:09:38;;;;;;;26.20;24.60;;;7.80;77.70;;;;;;5015292;28;20571;-77
2020/12/15 05:12:06;;;;;;;25.10;23.60;;;7.80;77.80;;;;;;5013648;28;20256;-77
2020/12/15 05:14:32;;;;;;;25.95;24.23;;;7.80;77.40;;;;;;5013786;28;20194;-77
2020/12/15 05:16:58;;;;;;;25.42;23.85;;;7.80;77.30;;;;;;5014170;28;20214;-77
2020/12/15 05:19:25;;;;;;;25.83;24.17;;;7.80;78.10;;;;;;5014472;28;20194;-77
2020/12/15 05:21:55;;;;;;;25.35;23.88;;;7.80;78.00;;;;;;5014910;28;20201;-77
2020/12/15 05:24:22;;;;;;;26.15;24.50;;;7.80;77.10;;;;;;5014635;28;20652;-77
2020/12/15 05:26:49;;;;;;;26.65;24.73;;;7.90;76.90;;;;;;5014221;28;20222;-77
2020/12/15 05:29:20;;;;;;;26.70;24.85;;;7.90;77.10;;;;;;5014029;28;20247;-77
2020/12/15 05:31:46;;;;;;;28.00;26.00;;;7.90;77.30;;;;;;5014241;28;20668;-77
2020/12/15 05:34:20;;;;;;;26.88;25.08;;;7.80;77.50;;;;;;5014565;28;20193;-77
2020/12/15 05:36:54;;;;;;;27.27;25.30;;;7.80;78.20;;;;;;5013644;28;20296;-77
2020/12/15 05:39:21;;;;;;;27.98;26.05;;;7.80;79.00;;;;;;5014155;28;20209;-77
2020/12/15 05:41:49;;;;;;;26.60;24.65;;;7.70;78.80;;;;;;5014397;28;20200;-77
2020/12/15 05:44:26;;;;;;;26.23;24.20;;;7.80;78.40;;;;;;5014305;28;20202;-77
2020/12/15 05:46:58;;;;;;;25.52;23.92;;;7.80;78.80;;;;;;5013769;28;20691;-77
2020/12/15 05:49:29;;;;;;;25.55;23.80;;;7.70;79.10;;;;;;5014136;28;20205;-77
2020/12/15 05:51:56;;;;;;;24.48;22.77;;;7.70;79.10;;;;;;5014080;28;20296;-77
2020/12/15 05:54:22;;;;;;;24.45;23.08;;;7.70;79.20;;;;;;5014003;28;20256;-77
2020/12/15 05:57:00;;;;;;;24.70;23.10;;;7.70;79.30;;;;;;5013381;28;20218;-77
2020/12/15 05:59:28;;;;;;;25.92;24.27;;;7.70;79.60;;;;;;5013978;28;20198;-77
2020/12/15 06:02:03;;;;;;;23.92;22.55;;;7.70;79.60;;;;;;5013938;28;20201;-77
2020/12/15 06:04:29;;;;;;;24.80;22.98;;;7.80;85.20;;;;;;5014158;28;20227;-77
2020/12/15 06:06:56;;;;;;;24.63;22.90;;;7.80;81.20;;;;;;5013056;28;20214;-77
2020/12/15 06:09:22;;;;;;;25.90;24.20;;;7.80;80.90;;;;;;5013826;28;20197;-77
2020/12/15 06:11:49;;;;;;;24.08;22.42;;;7.90;80.20;;;;;;5013763;28;20194;-77
2020/12/15 06:14:15;;;;;;;24.70;23.20;;;7.90;80.30;;;;;;5013907;28;20212;-77
2020/12/15 06:16:43;;;;;;;25.02;23.48;;;7.90;80.30;;;;;;5013294;28;20273;-77
2020/12/15 06:19:11;;;;;;;23.75;22.25;;;8.00;79.60;;;;;;5013271;28;20195;-77
2020/12/15 06:21:40;;;;;;;23.80;22.40;;;8.00;78.60;;;;;;5013416;28;20208;-77
2020/12/15 06:24:07;;;;;;;23.80;22.33;;;8.00;78.20;;;;;;5013172;28;20655;-77
2020/12/15 06:26:34;;;;;;;24.38;22.88;;;8.10;78.00;;;;;;5013160;28;20213;-77
2020/12/15 06:29:03;;;;;;;25.73;24.13;;;8.20;76.70;;;;;;5013808;28;20610;-77
2020/12/15 06:31:30;;;;;;;24.05;22.65;;;8.20;76.40;;;;;;5012947;28;20414;-77
2020/12/15 06:33:58;;;;;;;24.77;23.42;;;8.20;77.50;;;;;;5013266;28;20220;-77
2020/12/15 06:36:29;;;;;;;25.40;23.80;;;8.20;77.40;;;;;;5012924;28;20218;-77
2020/12/15 06:38:56;;;;;;;25.95;23.90;;;8.20;78.30;;;;;;5013535;28;20229;-77
2020/12/15 06:41:24;;;;;;;25.15;23.75;;;8.20;77.70;;;;;;5013037;28;20268;-77
2020/12/15 06:43:51;;;;;;;26.33;24.67;;;8.30;76.80;;;;;;5013080;28;20202;-77
2020/12/15 06:46:27;;;;;;;26.67;24.92;;;8.30;76.10;;;;;;5012996;28;20354;-77
2020/12/15 06:48:55;;;;;;;25.90;24.30;;;8.20;76.30;;;;;;5013298;28;20575;-77
2020/12/15 06:51:30;;;;;;;27.23;25.42;;;8.20;76.40;;;;;;5012710;28;20729;-76
2020/12/15 06:54:01;;;;;;;24.70;23.10;;;8.20;77.40;;;;;;5013224;28;20224;-77
2020/12/15 06:56:29;;;;;;;26.15;24.45;;;8.20;80.60;;;;;;4993346;28;20223;-77
2020/12/15 06:59:03;;;;;;;26.02;24.27;;;8.30;78.50;;;;;;4994200;28;20207;-77
2020/12/15 07:01:29;;;;;;;24.35;22.83;;;8.30;77.00;;;;;;5007849;28;20195;-77
2020/12/15 07:03:57;;;;;;;27.95;26.25;;;8.30;76.80;;;;;;5012634;28;20202;-77
2020/12/15 07:06:23;;;;;;;27.63;25.95;;;8.20;76.90;;;;;;5012918;28;20226;-77
2020/12/15 07:09:04;;;;;;;27.73;26.02;;;8.20;76.90;;;;;;5012960;28;20290;-77
2020/12/15 07:11:30;;;;;;;27.60;25.77;;;8.20;77.00;;;;;;4993198;28;20198;-77
2020/12/15 07:13:58;;;;;;;27.80;26.08;;;8.10;77.60;;;;;;4993226;28;20629;-77
2020/12/15 07:16:25;;;;;;;26.73;24.45;;;8.00;80.10;;;;;;4992797;28;20219;-77
2020/12/15 07:18:52;;;;;;;26.75;25.05;;;8.00;79.70;;;;;;4993248;28;20203;-77
2020/12/15 07:21:18;;;;;;;26.35;24.45;;;8.00;79.30;;;;;;5011184;28;20202;-77
2020/12/15 07:23:46;;;;;;;28.48;26.52;;;8.10;78.50;;;;;;5012759;28;20271;-77
2020/12/15 07:26:15;;;;;;;25.40;23.80;;;8.20;78.10;;;;;;5012607;28;20214;-77
2020/12/15 07:28:44;;;;;;;27.13;25.20;;;8.20;78.50;;;;;;5012772;28;20251;-77
2020/12/15 07:31:11;;;;;;;26.52;24.50;;;8.20;78.40;;;;;;5012402;28;20225;-77
2020/12/15 07:33:38;;;;;;;26.05;24.33;;;8.20;78.20;;;;;;5012456;28;20202;-77
2020/12/15 07:36:13;;;;;;;27.88;25.92;;;8.20;78.40;;;;;;5013962;28;20218;-77
2020/12/15 07:38:40;;;;;;;27.08;25.35;;;8.20;78.40;;;;;;5016111;28;20197;-77
2020/12/15 07:41:14;;;;;;;28.02;25.65;;;8.20;78.30;;;;;;5016187;28;20285;-77
2020/12/15 07:43:50;;;;;;;27.08;25.38;;;8.20;78.50;;;;;;5016555;28;20201;-77
2020/12/15 07:46:17;;;;;;;26.60;24.90;;;8.20;78.70;;;;;;5016289;28;20210;-77
2020/12/15 07:48:46;;;;;;;26.20;24.30;;;8.20;79.60;;;;;;5016382;28;20660;-77
2020/12/15 07:51:12;;;;;;;27.10;25.15;;;8.30;79.40;;;;;;5015837;28;20261;-77
2020/12/15 07:53:39;;;;;;;26.27;24.50;;;8.30;79.00;;;;;;5016550;28;20200;-77
2020/12/15 07:56:06;;;;;;;27.50;25.70;;;8.40;78.10;;;;;;5016267;28;20313;-77
2020/12/15 07:58:36;;;;;;;27.42;25.63;;;8.40;77.40;;;;;;5016044;28;20652;-77
2020/12/15 08:01:03;;;;;;;30.00;28.20;;;8.50;77.30;;;;;;5016092;28;20194;-78
2020/12/15 08:03:29;;;;;;;27.38;25.58;;;8.60;77.80;;;;;;5015984;28;20205;-77
2020/12/15 08:05:56;;;;;;;27.60;25.83;;;8.70;77.60;;;;;;5015729;28;20244;-77
2020/12/15 08:08:22;;;;;;;26.80;25.20;;;8.70;77.60;;;;;;5015829;28;20297;-77
2020/12/15 08:10:49;;;;;;;27.33;25.48;;;8.70;77.90;;;;;;5016080;28;20198;-77
2020/12/15 08:13:15;;;;;;;26.42;24.63;;;8.80;77.70;;;;;;5015853;28;20575;-77
2020/12/15 08:15:44;;;;;;;27.73;25.70;;;8.80;77.80;;;;;;5015889;28;20201;-77
2020/12/15 08:18:11;;;;;;;27.05;25.40;;;8.80;77.70;;;;;;5016077;28;20194;-77
2020/12/15 08:20:41;;;;;;;27.77;25.80;;;8.90;77.60;;;;;;5016331;28;20200;-77
2020/12/15 08:23:09;;;;;;;29.40;27.70;;;8.90;78.60;;;;;;5017447;28;20194;-77
2020/12/15 08:25:38;;;;;;;29.95;27.70;;;8.90;80.90;;;;;;5017193;28;20256;-77
2020/12/15 08:28:08;;;;;;;30.50;27.95;;;9.00;81.50;;;;;;5016508;28;20226;-78
2020/12/15 08:30:35;;;;;;;26.02;24.33;;;9.00;83.30;;;;;;5016292;28;20284;-77
2020/12/15 08:33:02;;;;;;;27.07;25.27;;;9.00;81.40;;;;;;5015682;28;20190;-77
2020/12/15 08:35:29;;;;;;;27.70;25.75;;;9.00;80.40;;;;;;5015123;28;20452;-76
2020/12/15 08:37:57;;;;;;;25.90;24.15;;;8.90;79.80;;;;;;5014833;28;20229;-76
2020/12/15 08:40:25;;;;;;;26.30;24.63;;;8.90;80.00;;;;;;5015433;28;20201;-76
2020/12/15 08:42:55;;;;;;;27.17;25.17;;;9.00;79.30;;;;;;5015473;28;20198;-76
2020/12/15 08:45:25;;;;;;;29.02;26.52;;;9.00;78.70;;;;;;5014993;28;20194;-77
2020/12/15 08:47:52;;;;;;;27.77;25.90;;;9.10;77.60;;;;;;5015174;28;20273;-76
2020/12/15 08:50:20;;;;;;;29.50;27.40;;;9.10;77.60;;;;;;5014928;28;20198;-76
2020/12/15 08:52:47;;;;;;;27.48;25.50;;;9.10;77.60;;;;;;5014939;28;20201;-76
2020/12/15 08:55:13;;;;;;;27.08;25.23;;;9.00;78.20;;;;;;5015158;28;20236;-76
2020/12/15 08:57:40;;;;;;;26.83;25.13;;;9.10;77.50;;;;;;5014741;28;20687;-77
2020/12/15 09:00:11;;;;;;;28.45;26.38;;;9.10;79.40;;;;;;5014971;28;20452;-77
2020/12/15 09:02:37;;;;;;;29.60;27.38;;;9.10;78.50;;;;;;5014635;28;20197;-77
2020/12/15 09:05:11;;;;;;;26.83;25.13;;;9.20;77.10;;;;;;5014570;28;20198;-77
2020/12/15 09:07:39;;;;;;;26.75;24.95;;;9.10;77.30;;;;;;5014494;28;20235;-76
2020/12/15 09:10:14;;;;;;;27.95;26.00;;;9.20;77.40;;;;;;5014589;28;20194;-77
2020/12/15 09:12:43;;;;;;;27.58;25.60;;;9.20;77.10;;;;;;5014755;28;20631;-77
2020/12/15 09:15:10;;;;;;;27.55;25.65;;;9.10;76.90;;;;;;5014635;28;20210;-77
2020/12/15 09:17:37;;;;;;;26.30;24.58;;;9.10;77.30;;;;;;5014413;28;20228;-77
2020/12/15 09:20:06;;;;;;;27.17;25.23;;;9.10;77.20;;;;;;5014274;28;20191;-77
2020/12/15 09:22:33;;;;;;;27.60;25.80;;;9.20;76.80;;;;;;5014736;28;20205;-77
2020/12/15 09:25:01;;;;;;;28.00;26.10;;;9.30;76.10;;;;;;5014493;28;20260;-77
2020/12/15 09:27:28;;;;;;;28.15;26.33;;;9.30;75.80;;;;;;5014263;28;20217;-77
2020/12/15 09:29:56;;;;;;;29.43;27.60;;;9.40;75.80;;;;;;5014215;28;20737;-77
2020/12/15 09:32:22;;;;;;;27.80;25.70;;;9.40;75.40;;;;;;5014197;28;20550;-77
2020/12/15 09:34:48;;;;;;;28.42;26.73;;;9.40;75.40;;;;;;5014594;28;20194;-77
2020/12/15 09:37:15;;;;;;;28.48;26.85;;;9.50;75.40;;;;;;5013882;28;20237;-77
2020/12/15 09:39:42;;;;;;;28.30;26.37;;;9.50;75.00;;;;;;5013871;28;20625;-77
2020/12/15 09:42:09;;;;;;;27.67;25.47;;;9.50;75.60;;;;;;5014256;28;20460;-77
2020/12/15 09:44:36;;;;;;;29.17;26.97;;;9.50;76.60;;;;;;5014239;28;20452;-77
2020/12/15 09:47:04;;;;;;;28.30;26.37;;;9.50;76.50;;;;;;5014009;28;20476;-77
2020/12/15 09:49:30;;;;;;;28.35;26.35;;;9.60;76.40;;;;;;5013916;28;20452;-77
2020/12/15 09:51:57;;;;;;;30.13;27.93;;;9.60;76.00;;;;;;5013897;28;20194;-77
2020/12/15 09:54:23;;;;;;;28.33;26.30;;;9.80;75.50;;;;;;5014044;28;20453;-77
2020/12/15 09:56:49;;;;;;;28.93;26.87;;;9.80;77.00;;;;;;5013362;28;20503;-77
2020/12/15 09:59:16;;;;;;;28.30;26.40;;;9.90;75.50;;;;;;5013314;28;20457;-77
2020/12/15 10:01:43;;;;;;;29.57;27.70;;;10.00;75.10;;;;;;5013306;28;20464;-77
2020/12/15 10:04:10;;;;;;;29.23;27.33;;;10.00;74.80;;;;;;5013677;28;20455;-77
2020/12/15 10:06:36;;;;;;;28.07;25.97;;;10.10;74.30;;;;;;5013598;28;20481;-77
2020/12/15 10:09:03;;;;;;;29.13;27.10;;;10.20;73.60;;;;;;5013958;28;20834;-77
2020/12/15 10:11:30;;;;;;;29.10;26.77;;;10.20;73.70;;;;;;5013572;28;21034;-77
2020/12/15 10:13:57;;;;;;;28.33;26.53;;;10.20;73.20;;;;;;5013688;28;20549;-77
2020/12/15 10:16:24;;;;;;;28.83;26.70;;;10.20;74.20;;;;;;5013582;28;20488;-77
2020/12/15 10:18:50;;;;;;;29.80;27.70;;;10.20;74.00;;;;;;5013396;28;21021;-77
2020/12/15 10:21:18;;;;;;;29.90;28.00;;;10.20;73.40;;;;;;5012976;28;20546;-77
2020/12/15 10:23:47;;;;;;;32.33;29.77;;;10.20;73.30;;;;;;5014074;28;20457;-77
2020/12/15 10:26:13;;;;;;;30.63;28.50;;;10.20;73.30;;;;;;5013294;28;20531;-77
2020/12/15 10:28:41;;;;;;;29.77;27.80;;;10.10;73.40;;;;;;5013433;28;20859;-76
2020/12/15 10:31:09;;;;;;;30.30;28.10;;;10.20;73.40;;;;;;5013260;28;20198;-76
2020/12/15 10:33:36;;;;;;;32.53;30.17;;;10.30;73.20;;;;;;5013233;28;20453;-76
2020/12/15 10:36:03;;;;;;;29.77;27.77;;;10.40;72.80;;;;;;5012576;28;20571;-76
2020/12/15 10:38:30;;;;;;;29.20;27.17;;;10.40;73.20;;;;;;5013549;28;20445;-76
2020/12/15 10:40:57;;;;;;;31.00;29.00;;;10.50;72.50;;;;;;5013474;28;20461;-77
2020/12/15 10:43:23;;;;;;;31.87;29.70;;;10.50;72.80;;;;;;5013240;28;20456;-76
2020/12/15 10:45:50;;;;;;;29.43;27.43;;;10.50;72.70;;;;;;5012837;28;20459;-77
2020/12/15 10:48:16;;;;;;;29.83;27.63;;;10.60;72.40;;;;;;5013245;28;20444;-77
2020/12/15 10:50:43;;;;;;;29.07;27.00;;;10.70;72.30;;;;;;5013170;28;20460;-77
2020/12/15 10:53:10;;;;;;;29.90;27.60;;;10.70;73.30;;;;;;5013123;28;20453;-77
2020/12/15 10:55:37;;;;;;;31.33;29.13;;;10.80;72.40;;;;;;5012484;28;20444;-77
2020/12/15 10:58:04;;;;;;;28.80;26.80;;;10.70;72.40;;;;;;5012410;28;20480;-77
2020/12/15 11:00:30;;;;;;;30.83;28.50;;;10.70;72.60;;;;;;5012924;28;20511;-77
2020/12/15 11:02:56;;;;;;;29.47;27.57;;;10.70;72.70;;;;;;5012915;28;20947;-77
2020/12/15 11:05:23;;;;;;;30.53;27.87;;;10.60;73.00;;;;;;5012511;28;20449;-77
2020/12/15 11:07:50;;;;;;;30.07;27.87;;;10.60;73.10;;;;;;5012899;28;21089;-77
2020/12/15 11:10:16;;;;;;;30.30;28.20;;;10.60;73.30;;;;;;5013167;28;20460;-77
2020/12/15 11:12:43;;;;;;;30.17;28.07;;;10.50;73.90;;;;;;5012889;28;20457;-77
2020/12/15 11:15:09;;;;;;;32.13;30.10;;;10.60;73.80;;;;;;5012639;28;20536;-77
2020/12/15 11:17:35;;;;;;;29.67;27.67;;;10.60;74.30;;;;;;5012556;28;20580;-77
2020/12/15 11:20:02;;;;;;;29.97;27.90;;;10.60;74.60;;;;;;5012809;28;20456;-77
2020/12/15 11:22:28;;;;;;;29.80;27.60;;;10.60;74.70;;;;;;5012794;28;20540;-77
2020/12/15 11:24:55;;;;;;;29.23;27.13;;;10.70;75.10;;;;;;5012515;28;20962;-77
2020/12/15 11:27:22;;;;;;;27.20;25.40;;;10.80;75.30;;;;;;5012561;28;20469;-77
2020/12/15 11:29:52;;;;;;;31.23;28.73;;;10.80;75.90;;;;;;5012754;28;21013;-77
2020/12/15 11:32:18;;;;;;;31.27;28.50;;;10.80;75.90;;;;;;5012442;28;21053;-77
2020/12/15 11:34:45;;;;;;;30.60;28.27;;;10.90;75.80;;;;;;5012517;28;20510;-77
2020/12/15 11:37:12;;;;;;;29.63;27.53;;;11.00;75.90;;;;;;5012231;28;20491;-77
2020/12/15 11:39:39;;;;;;;29.83;27.63;;;10.90;76.20;;;;;;5012648;28;20457;-77
2020/12/15 11:42:08;;;;;;;28.73;26.90;;;11.00;76.20;;;;;;5012459;28;20819;-77
2020/12/15 11:44:34;;;;;;;30.33;28.03;;;11.00;76.40;;;;;;5012370;28;20442;-77
2020/12/15 11:47:01;;;;;;;30.60;28.50;;;11.00;76.50;;;;;;5012370;28;20996;-77
2020/12/15 11:49:27;;;;;;;29.47;27.30;;;11.10;76.50;;;;;;5012502;28;20490;-77
2020/12/15 11:51:54;;;;;;;31.00;28.40;;;11.10;76.30;;;;;;5012576;28;20449;-77
2020/12/15 11:54:20;;;;;;;28.80;26.70;;;11.10;76.30;;;;;;5012096;28;21065;-77
2020/12/15 11:56:52;;;;;;;29.80;27.70;;;11.10;76.70;;;;;;5012387;28;20491;-77
2020/12/15 11:59:19;;;;;;;30.30;28.00;;;11.10;77.80;;;;;;5012356;28;20449;-77
2020/12/15 12:01:45;;;;;;;29.80;27.63;;;11.20;77.70;;;;;;5012250;28;20475;-77
2020/12/15 12:04:12;;;;;;;30.70;28.50;;;11.20;79.40;;;;;;5012314;28;20871;-78
2020/12/15 12:06:38;;;;;;;30.43;27.73;;;11.30;77.90;;;;;;5012005;28;20989;-77
2020/12/15 12:09:05;;;;;;;29.23;27.13;;;11.40;77.50;;;;;;5012281;28;20487;-77
2020/12/15 12:11:31;;;;;;;29.23;27.20;;;11.40;77.50;;;;;;5012278;28;20837;-77
2020/12/15 12:13:57;;;;;;;29.83;27.63;;;11.60;77.20;;;;;;5012400;28;20950;-77
2020/12/15 12:16:25;;;;;;;28.90;26.73;;;11.70;76.70;;;;;;5011944;28;20493;-77
2020/12/15 12:18:51;;;;;;;32.40;30.10;;;11.70;76.50;;;;;;5012490;28;20515;-77
2020/12/15 12:21:17;;;;;;;29.17;27.27;;;11.70;76.50;;;;;;5012692;28;20495;-77
2020/12/15 12:23:44;;;;;;;29.30;27.00;;;11.80;76.80;;;;;;5015819;28;20453;-77
2020/12/15 12:26:14;;;;;;;30.80;28.70;;;11.90;76.60;;;;;;5015528;28;20488;-77
2020/12/15 12:28:41;;;;;;;30.23;27.67;;;12.00;76.50;;;;;;5015333;28;20947;-77
2020/12/15 12:31:10;;;;;;;29.60;27.50;;;12.00;76.70;;;;;;5015494;28;20459;-77
2020/12/15 12:33:37;;;;;;;28.60;26.57;;;12.00;77.40;;;;;;5015699;28;20456;-77
2020/12/15 12:36:03;;;;;;;30.07;27.80;;;12.00;77.40;;;;;;5015148;28;20571;-77